Terminal Aerodrome Forecast
Issued by NWS

Home | Current Version | Previous Version | Graphics & Text | Print | Product List | Glossary On
Versions: 1 2 3 4 5 6 7 8 9 10 11 12 13 14 15 16
000
FTUS43 KMPX 170500
TAFRNH
TAF
KRNH 170540Z 1706/1806 27011KT P6SM SCT025 OVC050
     FM171000 29014G20KT P6SM SCT020 OVC035
     FM171500 30017G23KT P6SM OVC025
     FM172200 33014G21KT P6SM OVC040
     FM180300 34010KT P6SM OVC040=

USA.gov is the U.S. government's official web portal to all federal, state and local government web resources and services.